Time;durP1;ratioP1;P1;durP2;ratioP2;P2;SDS_P1;SDS_P2;PMS_P1;PMS_P2;Temp;Humidity;BMP_temperature;BMP_pressure;BME280_temperature;BME280_humidity;BME280_pressure;Samples;Min_cycle;Max_cycle;Signal;HPM_P1;HPM_P2
2023/05/02 00:05:04;;;;;;;4.93;2.10;;;;;;;;;;10538497;28;20049;-85
2023/05/02 00:10:15;;;;;;;6.95;2.65;;;;;;;;;;10539491;28;20097;-85
2023/05/02 00:15:20;;;;;;;1.38;0.98;;;;;;;;;;10498298;28;20645;-87
2023/05/02 00:20:25;;;;;;;4.07;2.33;;;;;;;;;;10535172;28;20404;-86
2023/05/02 00:25:30;;;;;;;3.67;1.90;;;;;;;;;;10538526;28;20039;-85
2023/05/02 00:30:35;;;;;;;5.95;2.88;;;;;;;;;;10540742;28;20036;-87
2023/05/02 00:35:43;;;;;;;2.85;1.13;;;;;;;;;;10531987;28;20109;-89
2023/05/02 00:40:50;;;;;;;3.25;1.77;;;;;;;;;;10534802;28;20048;-90
2023/05/02 00:45:55;;;;;;;2.47;1.55;;;;;;;;;;10537752;28;20036;-85
2023/05/02 00:51:03;;;;;;;3.85;2.05;;;;;;;;;;10522660;28;20557;-85
2023/05/02 00:56:12;;;;;;;5.75;2.45;;;;;;;;;;10536943;28;20428;-87
2023/05/02 01:01:28;;;;;;;3.13;1.73;;;;;;;;;;10527530;28;20416;-85
2023/05/02 01:06:37;;;;;;;4.43;2.50;;;;;;;;;;10529681;28;20045;-85
2023/05/02 01:11:50;;;;;;;5.47;2.50;;;;;;;;;;10535237;28;20404;-84
2023/05/02 01:16:56;;;;;;;5.25;2.70;;;;;;;;;;10534229;28;20167;-88
2023/05/02 01:22:03;;;;;;;1.25;0.90;;;;;;;;;;10540535;28;20051;-86
2023/05/02 01:27:29;;;;;;;2.28;1.27;;;;;;;;;;10529942;28;20079;-86
2023/05/02 01:32:52;;;;;;;4.30;2.38;;;;;;;;;;10536700;28;20472;-87
2023/05/02 01:38:17;;;;;;;5.63;2.85;;;;;;;;;;10530002;28;20468;-90
2023/05/02 01:43:37;;;;;;;2.67;1.38;;;;;;;;;;10533138;28;20080;-90
2023/05/02 01:48:46;;;;;;;3.80;1.88;;;;;;;;;;10544111;27;20092;-91
2023/05/02 01:53:58;;;;;;;3.90;2.00;;;;;;;;;;10532233;28;20116;-91
2023/05/02 01:59:25;;;;;;;6.10;2.85;;;;;;;;;;10536033;28;20043;-85
2023/05/02 02:04:45;;;;;;;4.30;2.53;;;;;;;;;;10535323;28;20058;-85
2023/05/02 02:09:57;;;;;;;8.02;2.83;;;;;;;;;;10526771;28;20048;-85
2023/05/02 02:15:03;;;;;;;2.60;1.42;;;;;;;;;;10545652;27;20127;-84
2023/05/02 02:20:10;;;;;;;3.50;1.95;;;;;;;;;;10526885;28;20055;-83
2023/05/02 02:25:16;;;;;;;5.63;1.95;;;;;;;;;;10533450;28;20042;-85
2023/05/02 02:30:21;;;;;;;5.30;2.40;;;;;;;;;;10508302;28;20054;-85
2023/05/02 02:35:38;;;;;;;4.45;1.83;;;;;;;;;;10509975;28;20044;-85
2023/05/02 02:40:57;;;;;;;3.10;1.45;;;;;;;;;;10542268;28;20044;-86
2023/05/02 02:46:13;;;;;;;4.78;2.58;;;;;;;;;;10530901;28;20059;-89
2023/05/02 02:51:30;;;;;;;4.82;2.70;;;;;;;;;;10513814;28;20051;-87
2023/05/02 02:56:41;;;;;;;3.10;1.85;;;;;;;;;;10527284;28;20051;-88
2023/05/02 03:07:22;;;;;;;3.47;1.35;;;;;;;;;;10541209;28;20051;-90
2023/05/02 03:12:28;;;;;;;3.22;1.92;;;;;;;;;;10537113;28;20089;-88
2023/05/02 03:17:44;;;;;;;3.92;2.17;;;;;;;;;;10548006;28;20055;-85
2023/05/02 03:22:53;;;;;;;2.90;1.92;;;;;;;;;;10520044;28;20477;-86
2023/05/02 03:28:14;;;;;;;3.05;1.80;;;;;;;;;;10545790;28;20464;-88
2023/05/02 03:33:19;;;;;;;4.38;2.40;;;;;;;;;;10548165;27;20151;-86
2023/05/02 03:38:24;;;;;;;4.40;2.00;;;;;;;;;;10515565;28;20043;-87
2023/05/02 03:43:40;;;;;;;2.30;1.08;;;;;;;;;;10544665;28;20040;-93
2023/05/02 03:48:46;;;;;;;3.95;2.35;;;;;;;;;;10552310;28;20101;-91
2023/05/02 03:53:54;;;;;;;5.72;2.53;;;;;;;;;;10574582;28;20095;-86
2023/05/02 03:59:00;;;;;;;4.90;2.65;;;;;;;;;;10543119;28;20085;-85
2023/05/02 04:04:20;;;;;;;5.40;3.05;;;;;;;;;;10520807;28;20040;-85
2023/05/02 04:09:33;;;;;;;5.13;2.60;;;;;;;;;;10533840;28;20255;-88
2023/05/02 04:14:41;;;;;;;3.17;1.23;;;;;;;;;;10540272;28;20064;-88
2023/05/02 04:19:51;;;;;;;6.07;3.03;;;;;;;;;;10526563;28;20041;-89
2023/05/02 04:25:05;;;;;;;6.18;2.90;;;;;;;;;;10535463;28;20051;-88
2023/05/02 04:30:19;;;;;;;4.85;2.20;;;;;;;;;;10558104;27;20401;-89
2023/05/02 04:35:31;;;;;;;6.07;2.72;;;;;;;;;;10539264;28;20181;-86
2023/05/02 04:40:48;;;;;;;3.75;2.03;;;;;;;;;;10520233;28;20107;-87
2023/05/02 04:45:53;;;;;;;5.57;2.45;;;;;;;;;;10539613;28;20077;-88
2023/05/02 04:50:57;;;;;;;7.90;2.25;;;;;;;;;;10531756;28;20036;-88
2023/05/02 05:01:28;;;;;;;4.35;2.17;;;;;;;;;;10554224;27;20044;-86
2023/05/02 05:06:35;;;;;;;4.32;2.63;;;;;;;;;;10531860;28;20071;-83
2023/05/02 05:11:45;;;;;;;5.57;2.60;;;;;;;;;;10514616;28;20210;-88
2023/05/02 05:16:50;;;;;;;4.93;2.55;;;;;;;;;;10536288;28;20408;-90
2023/05/02 05:21:56;;;;;;;4.15;2.58;;;;;;;;;;10522091;28;20047;-85
2023/05/02 05:27:02;;;;;;;2.90;1.55;;;;;;;;;;10525955;28;20116;-87
2023/05/02 05:32:06;;;;;;;3.17;1.80;;;;;;;;;;10534513;28;20043;-84
2023/05/02 05:37:15;;;;;;;7.20;3.28;;;;;;;;;;10529108;28;20372;-84
2023/05/02 05:42:24;;;;;;;4.95;2.30;;;;;;;;;;10534131;28;20128;-83
2023/05/02 05:47:30;;;;;;;5.43;2.90;;;;;;;;;;10530860;28;20081;-82
2023/05/02 05:52:40;;;;;;;2.05;1.65;;;;;;;;;;10528093;28;20036;-83
2023/05/02 05:57:49;;;;;;;4.00;2.35;;;;;;;;;;10533746;28;20036;-82
2023/05/02 06:02:58;;;;;;;4.75;2.30;;;;;;;;;;10538184;28;20156;-83
2023/05/02 06:08:03;;;;;;;4.88;2.55;;;;;;;;;;10514841;28;20035;-83
2023/05/02 06:13:11;;;;;;;4.30;2.20;;;;;;;;;;10532982;28;20065;-82
2023/05/02 06:18:15;;;;;;;3.78;2.13;;;;;;;;;;10543535;28;20538;-82
2023/05/02 06:23:27;;;;;;;;;;;;;;;;;;10524693;28;20071;-82
2023/05/02 06:28:35;;;;;;;5.35;2.50;;;;;;;;;;10515720;28;19939;-83
2023/05/02 06:33:42;;;;;;;4.30;2.53;;;;;;;;;;10534345;28;20119;-83
2023/05/02 06:38:47;;;;;;;6.63;3.20;;;;;;;;;;10506810;28;20380;-83
2023/05/02 06:43:56;;;;;;;5.38;3.00;;;;;;;;;;10521121;28;20128;-83
2023/05/02 06:49:03;;;;;;;6.82;3.15;;;;;;;;;;10530131;28;20083;-82
2023/05/02 06:54:07;;;;;;;6.25;3.50;;;;;;;;;;10539610;28;20040;-83
2023/05/02 06:59:40;;;;;;;7.45;3.50;;;;;;;;;;10525596;28;20116;-83
2023/05/02 07:04:47;;;;;;;5.65;3.28;;;;;;;;;;10542710;28;20059;-82
2023/05/02 07:09:51;;;;;;;6.40;3.03;;;;;;;;;;10541873;28;20040;-83
2023/05/02 07:15:00;;;;;;;6.18;3.35;;;;;;;;;;10540510;28;20052;-82
2023/05/02 07:20:08;;;;;;;2.42;1.35;;;;;;;;;;10533729;28;20035;-82
2023/05/02 07:25:12;;;;;;;8.05;3.13;;;;;;;;;;10543613;28;20155;-84
2023/05/02 07:30:25;;;;;;;6.60;3.55;;;;;;;;;;10542590;28;20058;-84
2023/05/02 07:35:37;;;;;;;9.38;5.07;;;;;;;;;;10534317;28;20039;-84
2023/05/02 07:40:45;;;;;;;8.00;4.23;;;;;;;;;;10510359;28;20071;-84
2023/05/02 07:45:52;;;;;;;10.63;5.15;;;;;;;;;;10532622;28;20457;-83
2023/05/02 07:51:12;;;;;;;10.50;4.35;;;;;;;;;;10524773;28;20048;-83
2023/05/02 07:56:16;;;;;;;9.35;4.40;;;;;;;;;;10541339;28;20536;-84
2023/05/02 08:01:20;;;;;;;7.72;3.80;;;;;;;;;;10532553;28;20051;-83
2023/05/02 08:06:31;;;;;;;6.07;3.88;;;;;;;;;;10508015;28;20139;-84
2023/05/02 08:11:41;;;;;;;;;;;;;;;;;;10535706;28;20551;-84
2023/05/02 08:16:45;;;;;;;6.60;3.72;;;;;;;;;;10512099;28;20388;-84
2023/05/02 08:21:58;;;;;;;6.90;4.30;;;;;;;;;;10529706;28;20056;-84
2023/05/02 08:27:06;;;;;;;7.60;3.78;;;;;;;;;;10537495;28;20043;-83
2023/05/02 08:32:10;;;;;;;6.78;4.10;;;;;;;;;;10545920;28;20054;-83
2023/05/02 08:37:19;;;;;;;7.90;4.30;;;;;;;;;;10547867;28;20047;-83
2023/05/02 08:42:24;;;;;;;6.97;3.65;;;;;;;;;;10545213;28;20051;-83
2023/05/02 08:47:39;;;;;;;6.68;4.03;;;;;;;;;;10544102;28;20058;-84
2023/05/02 08:52:50;;;;;;;8.32;4.93;;;;;;;;;;10534278;28;20072;-84
2023/05/02 08:57:57;;;;;;;5.75;3.63;;;;;;;;;;10528080;28;20047;-84
2023/05/02 09:03:10;;;;;;;6.88;4.75;;;;;;;;;;10533508;28;20120;-84
2023/05/02 09:08:22;;;;;;;5.75;4.05;;;;;;;;;;10545869;28;20075;-83
2023/05/02 09:13:34;;;;;;;7.57;4.78;;;;;;;;;;10534763;28;20040;-84
2023/05/02 09:18:47;;;;;;;10.02;5.07;;;;;;;;;;10541108;28;20055;-84
2023/05/02 09:24:02;;;;;;;7.72;4.25;;;;;;;;;;10518405;28;20051;-84
2023/05/02 09:29:11;;;;;;;7.85;4.25;;;;;;;;;;10547293;28;20047;-84
2023/05/02 09:34:25;;;;;;;7.10;4.70;;;;;;;;;;10514897;28;20059;-84
2023/05/02 09:39:39;;;;;;;8.50;4.68;;;;;;;;;;10565815;27;20093;-83
2023/05/02 09:44:45;;;;;;;9.63;5.60;;;;;;;;;;10522328;28;20052;-83
2023/05/02 09:49:54;;;;;;;8.77;4.90;;;;;;;;;;10533668;28;20130;-84
2023/05/02 09:55:21;;;;;;;9.48;4.65;;;;;;;;;;10534749;28;20035;-83
2023/05/02 10:00:42;;;;;;;9.13;5.13;;;;;;;;;;10535194;28;20051;-84
2023/05/02 10:05:45;;;;;;;8.10;4.90;;;;;;;;;;10531314;28;20522;-83
2023/05/02 10:10:56;;;;;;;8.13;4.47;;;;;;;;;;10512005;28;20463;-83
2023/05/02 10:16:14;;;;;;;6.13;3.20;;;;;;;;;;10527476;28;20035;-83
2023/05/02 10:21:20;;;;;;;9.85;4.85;;;;;;;;;;10533800;28;20082;-84
2023/05/02 10:26:26;;;;;;;9.38;5.20;;;;;;;;;;10517849;28;20484;-83
2023/05/02 10:31:48;;;;;;;7.63;4.95;;;;;;;;;;10533766;28;20176;-83
2023/05/02 10:37:00;;;;;;;8.82;5.07;;;;;;;;;;10539709;28;20051;-84
2023/05/02 10:42:06;;;;;;;8.40;4.70;;;;;;;;;;10530533;28;20070;-82
2023/05/02 10:47:32;;;;;;;7.50;4.50;;;;;;;;;;10530401;28;20488;-82
2023/05/02 10:52:42;;;;;;;7.65;4.72;;;;;;;;;;10524462;28;20048;-82
2023/05/02 10:58:06;;;;;;;10.40;5.38;;;;;;;;;;10508126;28;20130;-83
2023/05/02 11:03:20;;;;;;;11.07;5.78;;;;;;;;;;10524635;28;20051;-82
2023/05/02 11:08:36;;;;;;;13.73;6.20;;;;;;;;;;10546406;28;20044;-82
2023/05/02 11:13:49;;;;;;;12.23;6.18;;;;;;;;;;10520345;28;20044;-82
2023/05/02 11:18:59;;;;;;;10.75;5.70;;;;;;;;;;10539309;28;20393;-82
2023/05/02 11:24:22;;;;;;;12.15;7.03;;;;;;;;;;10519399;28;20116;-81
2023/05/02 11:29:27;;;;;;;;;;;;;;;;;;10548723;28;20130;-82
2023/05/02 11:34:54;;;;;;;14.85;7.32;;;;;;;;;;10545878;28;20018;-81
2023/05/02 11:40:14;;;;;;;12.50;6.93;;;;;;;;;;10532419;28;20043;-82
2023/05/02 11:45:33;;;;;;;12.65;6.82;;;;;;;;;;10535277;28;20110;-82
2023/05/02 11:50:45;;;;;;;16.08;7.55;;;;;;;;;;10541758;28;20138;-82
2023/05/02 11:55:54;;;;;;;13.40;7.05;;;;;;;;;;10550467;27;20040;-81
2023/05/02 12:01:03;;;;;;;4.93;2.65;;;;;;;;;;10523869;28;20032;-83
2023/05/02 12:06:17;;;;;;;12.02;7.03;;;;;;;;;;10530435;28;20039;-83
2023/05/02 12:11:28;;;;;;;10.48;5.43;;;;;;;;;;10541416;28;20049;-82
2023/05/02 12:16:40;;;;;;;14.55;6.43;;;;;;;;;;10547804;27;20395;-83
2023/05/02 12:21:46;;;;;;;12.82;6.57;;;;;;;;;;10545713;28;20419;-83
2023/05/02 12:27:08;;;;;;;13.50;6.85;;;;;;;;;;10500531;28;20139;-83
2023/05/02 12:32:16;;;;;;;13.05;6.43;;;;;;;;;;10534791;28;20052;-83
2023/05/02 12:37:26;;;;;;;14.25;6.88;;;;;;;;;;10523137;28;20067;-82
2023/05/02 12:42:38;;;;;;;12.65;6.07;;;;;;;;;;10538741;28;20040;-79
2023/05/02 12:47:47;;;;;;;11.30;6.07;;;;;;;;;;10556863;27;20132;-81
2023/05/02 12:52:57;;;;;;;9.27;5.65;;;;;;;;;;10523449;28;20147;-81
2023/05/02 12:58:05;;;;;;;9.15;5.55;;;;;;;;;;10541019;28;20048;-82
2023/05/02 13:03:11;;;;;;;9.32;5.40;;;;;;;;;;10518626;28;20047;-82
2023/05/02 13:08:17;;;;;;;10.18;6.03;;;;;;;;;;10546626;27;20049;-81
2023/05/02 13:13:23;;;;;;;10.23;5.80;;;;;;;;;;10529995;28;20040;-81
2023/05/02 13:18:29;;;;;;;7.82;5.18;;;;;;;;;;10518433;28;20116;-82
2023/05/02 13:23:39;;;;;;;12.85;5.35;;;;;;;;;;10548035;27;20054;-82
2023/05/02 13:28:52;;;;;;;9.00;4.68;;;;;;;;;;10524717;28;20044;-82
2023/05/02 13:33:56;;;;;;;9.82;4.63;;;;;;;;;;10538011;28;20044;-81
2023/05/02 13:39:05;;;;;;;8.13;4.40;;;;;;;;;;10525572;28;20055;-82
2023/05/02 13:44:17;;;;;;;5.50;3.92;;;;;;;;;;10524733;28;20048;-81
2023/05/02 13:49:25;;;;;;;6.25;4.40;;;;;;;;;;10526767;28;20044;-82
2023/05/02 13:54:33;;;;;;;7.25;4.18;;;;;;;;;;10526787;28;20126;-83
2023/05/02 13:59:38;;;;;;;8.75;4.82;;;;;;;;;;10552185;27;20229;-83
2023/05/02 14:04:44;;;;;;;5.32;3.42;;;;;;;;;;10542973;28;20044;-83
2023/05/02 14:09:54;;;;;;;4.70;2.90;;;;;;;;;;10532526;28;20044;-83
2023/05/02 14:15:02;;;;;;;5.60;3.13;;;;;;;;;;10518623;28;20097;-83
2023/05/02 14:20:15;;;;;;;5.35;2.97;;;;;;;;;;10535548;28;20134;-83
2023/05/02 14:25:37;;;;;;;6.43;2.97;;;;;;;;;;10537545;28;20562;-83
2023/05/02 14:30:43;;;;;;;9.20;4.32;;;;;;;;;;10542885;28;20079;-84
2023/05/02 14:35:49;;;;;;;8.25;3.85;;;;;;;;;;10539186;28;20101;-84
2023/05/02 14:40:55;;;;;;;7.30;3.55;;;;;;;;;;10527154;28;20079;-83
2023/05/02 14:46:04;;;;;;;7.45;3.50;;;;;;;;;;10528378;28;20446;-84
2023/05/02 14:51:09;;;;;;;7.75;3.22;;;;;;;;;;10534083;28;20056;-84
2023/05/02 14:56:18;;;;;;;5.40;2.65;;;;;;;;;;10527200;28;20055;-84
2023/05/02 15:01:23;;;;;;;6.35;3.47;;;;;;;;;;10527870;28;20079;-83
2023/05/02 15:06:33;;;;;;;3.72;2.83;;;;;;;;;;10547422;28;20109;-84
2023/05/02 15:11:40;;;;;;;5.25;2.58;;;;;;;;;;10525533;28;20067;-83
2023/05/02 15:16:46;;;;;;;6.20;3.33;;;;;;;;;;10528690;28;20044;-84
2023/05/02 15:21:57;;;;;;;3.58;2.05;;;;;;;;;;10514186;28;20067;-84
2023/05/02 15:27:18;;;;;;;2.90;1.60;;;;;;;;;;10520085;28;20044;-84
2023/05/02 15:32:25;;;;;;;3.25;2.00;;;;;;;;;;10502871;28;20051;-84
2023/05/02 15:37:34;;;;;;;1.83;1.50;;;;;;;;;;10503817;28;20044;-84
2023/05/02 15:42:45;;;;;;;3.38;1.52;;;;;;;;;;10518508;28;20055;-84
2023/05/02 15:47:57;;;;;;;3.15;2.00;;;;;;;;;;10524028;28;20040;-83
2023/05/02 15:53:03;;;;;;;3.92;2.45;;;;;;;;;;10519905;28;20130;-84
2023/05/02 15:58:15;;;;;;;4.57;2.22;;;;;;;;;;10550383;27;20075;-84
2023/05/02 16:03:19;;;;;;;4.30;2.42;;;;;;;;;;10545958;27;20068;-84
2023/05/02 16:08:23;;;;;;;2.88;1.60;;;;;;;;;;10529407;28;20543;-84
2023/05/02 16:13:28;;;;;;;;;;;;;;;;;;10515311;28;20055;-84
2023/05/02 16:18:33;;;;;;;4.10;2.67;;;;;;;;;;10513722;28;19934;-87
2023/05/02 16:23:46;;;;;;;5.90;3.13;;;;;;;;;;10522224;28;20047;-85
2023/05/02 16:28:59;;;;;;;4.30;2.83;;;;;;;;;;10530145;27;20046;-84
2023/05/02 16:34:24;;;;;;;8.48;3.55;;;;;;;;;;10506843;28;20519;-85
2023/05/02 16:39:48;;;;;;;7.10;3.50;;;;;;;;;;10531538;28;20063;-82
2023/05/02 16:44:53;;;;;;;7.13;3.85;;;;;;;;;;10523712;28;20036;-84
2023/05/02 16:50:02;;;;;;;10.88;4.32;;;;;;;;;;10522824;28;20712;-83
2023/05/02 16:55:17;;;;;;;11.25;5.93;;;;;;;;;;10535622;27;20083;-83
2023/05/02 17:00:21;;;;;;;;;;;;;;;;;;10524013;28;20455;-82
2023/05/02 17:05:26;;;;;;;10.68;5.40;;;;;;;;;;10522679;28;19996;-79
2023/05/02 17:15:59;;;;;;;10.07;4.32;;;;;;;;;;10549356;27;20461;-81
2023/05/02 17:21:02;;;;;;;8.00;3.80;;;;;;;;;;10548529;28;20491;-82
2023/05/02 17:26:12;;;;;;;6.20;3.17;;;;;;;;;;10542697;28;20368;-82
2023/05/02 17:31:17;;;;;;;7.53;3.70;;;;;;;;;;10539155;28;20499;-81
2023/05/02 17:36:20;;;;;;;9.65;4.20;;;;;;;;;;10540813;28;20067;-81
2023/05/02 17:41:23;;;;;;;6.78;3.40;;;;;;;;;;10542968;28;20555;-81
2023/05/02 17:46:27;;;;;;;10.63;4.13;;;;;;;;;;10541666;28;20043;-80
2023/05/02 17:51:30;;;;;;;;;;;;;;;;;;10539726;28;20212;-81
2023/05/02 17:56:35;;;;;;;7.60;2.77;;;;;;;;;;10538593;28;19939;-81
2023/05/02 18:01:49;;;;;;;6.70;3.60;;;;;;;;;;10542514;28;20047;-83
2023/05/02 18:07:06;;;;;;;5.70;2.72;;;;;;;;;;10505366;28;20047;-83
2023/05/02 18:12:09;;;;;;;9.10;3.45;;;;;;;;;;10555483;28;20044;-83
2023/05/02 18:17:19;;;;;;;6.10;2.80;;;;;;;;;;10556744;28;20156;-81
2023/05/02 18:22:22;;;;;;;6.38;3.25;;;;;;;;;;10558624;28;20135;-83
2023/05/02 18:27:24;;;;;;;5.32;2.00;;;;;;;;;;10537604;28;20055;-83
2023/05/02 18:32:30;;;;;;;5.25;2.67;;;;;;;;;;10524073;28;20048;-83
2023/05/02 18:37:34;;;;;;;5.15;2.97;;;;;;;;;;10522452;28;20123;-84
2023/05/02 18:42:37;;;;;;;6.13;3.10;;;;;;;;;;10521827;28;20105;-84
2023/05/02 18:47:41;;;;;;;1.45;0.95;;;;;;;;;;10521945;28;20055;-83
2023/05/02 18:52:44;;;;;;;7.85;3.00;;;;;;;;;;10524811;28;20043;-82
2023/05/02 18:57:47;;;;;;;6.78;3.88;;;;;;;;;;10525179;28;20147;-84
2023/05/02 19:02:53;;;;;;;8.20;3.73;;;;;;;;;;10522876;28;20059;-81
2023/05/02 19:07:56;;;;;;;8.30;3.97;;;;;;;;;;10527869;28;20048;-83
2023/05/02 19:12:58;;;;;;;6.25;3.38;;;;;;;;;;10516414;28;20523;-83
2023/05/02 19:18:03;;;;;;;8.68;3.78;;;;;;;;;;10515844;28;20048;-83
2023/05/02 19:23:06;;;;;;;7.28;3.88;;;;;;;;;;10516418;28;20047;-83
2023/05/02 19:28:21;;;;;;;10.73;4.88;;;;;;;;;;10508019;28;20051;-83
2023/05/02 19:33:25;;;;;;;8.90;4.57;;;;;;;;;;10523366;28;20032;-85
2023/05/02 19:38:28;;;;;;;10.57;4.72;;;;;;;;;;10515975;28;20029;-82
2023/05/02 19:43:31;;;;;;;9.05;4.82;;;;;;;;;;10522136;28;20046;-82
2023/05/02 19:48:35;;;;;;;9.60;4.10;;;;;;;;;;10525628;28;20040;-85
2023/05/02 19:53:38;;;;;;;;;;;;;;;;;;10520761;28;20051;-84
2023/05/02 19:58:41;;;;;;;11.10;5.05;;;;;;;;;;10515510;28;20038;-83
2023/05/02 20:04:01;;;;;;;9.70;4.70;;;;;;;;;;10519718;28;20082;-85
2023/05/02 20:09:32;;;;;;;10.05;4.57;;;;;;;;;;10517020;28;20185;-83
2023/05/02 20:14:37;;;;;;;9.90;4.53;;;;;;;;;;10520695;28;20067;-84
2023/05/02 20:20:06;;;;;;;11.23;4.75;;;;;;;;;;10503654;28;20204;-84
2023/05/02 20:25:34;;;;;;;12.95;5.40;;;;;;;;;;10498510;28;20541;-86
2023/05/02 20:30:40;;;;;;;12.65;5.57;;;;;;;;;;10518667;28;20036;-86
2023/05/02 20:35:58;;;;;;;15.63;5.75;;;;;;;;;;10504372;28;20102;-86
2023/05/02 20:41:09;;;;;;;12.10;5.35;;;;;;;;;;10531807;28;20044;-85
2023/05/02 20:46:14;;;;;;;14.93;5.50;;;;;;;;;;10531367;28;20107;-86
2023/05/02 20:51:23;;;;;;;11.73;5.45;;;;;;;;;;10533740;28;20259;-87
2023/05/02 20:56:29;;;;;;;13.80;5.65;;;;;;;;;;10528324;28;20048;-87
2023/05/02 21:01:34;;;;;;;11.07;5.55;;;;;;;;;;10497440;28;20051;-84
2023/05/02 21:07:05;;;;;;;15.35;5.45;;;;;;;;;;10503455;28;20039;-84
2023/05/02 21:12:11;;;;;;;15.02;6.38;;;;;;;;;;10521077;28;20678;-84
2023/05/02 21:17:15;;;;;;;13.60;5.95;;;;;;;;;;10524754;28;20048;-85
2023/05/02 21:22:19;;;;;;;;;;;;;;;;;;10523681;28;20062;-85
2023/05/02 21:27:27;;;;;;;15.45;5.57;;;;;;;;;;10526200;28;20017;-85
2023/05/02 21:32:32;;;;;;;16.05;6.47;;;;;;;;;;10513601;28;20044;-87
2023/05/02 21:37:40;;;;;;;12.07;5.85;;;;;;;;;;10495854;28;20058;-87
2023/05/02 21:49:03;;;;;;;14.15;6.45;;;;;;;;;;10525011;28;20497;-88
2023/05/02 21:54:17;;;;;;;13.85;6.60;;;;;;;;;;10528553;28;20051;-85
2023/05/02 21:59:25;;;;;;;15.50;5.65;;;;;;;;;;10543079;28;20436;-87
2023/05/02 22:04:46;;;;;;;12.63;5.68;;;;;;;;;;10537098;28;20043;-87
2023/05/02 22:09:54;;;;;;;16.05;6.97;;;;;;;;;;10534019;28;20044;-88
2023/05/02 22:14:57;;;;;;;16.98;6.72;;;;;;;;;;10531714;28;20105;-88
2023/05/02 22:20:02;;;;;;;17.42;7.13;;;;;;;;;;10531436;28;20406;-87
2023/05/02 22:25:21;;;;;;;15.20;6.88;;;;;;;;;;10511885;28;20079;-87
2023/05/02 22:30:26;;;;;;;17.80;7.95;;;;;;;;;;10532661;28;20104;-87
2023/05/02 22:35:29;;;;;;;15.25;6.43;;;;;;;;;;10519958;28;20051;-87
2023/05/02 22:40:33;;;;;;;14.52;6.15;;;;;;;;;;10524874;28;20080;-89
2023/05/02 22:45:41;;;;;;;14.30;6.57;;;;;;;;;;10524047;28;20040;-88
2023/05/02 22:50:47;;;;;;;16.63;6.97;;;;;;;;;;10534291;28;20066;-88
2023/05/02 22:55:53;;;;;;;15.25;6.80;;;;;;;;;;10527398;28;20477;-86
2023/05/02 23:01:01;;;;;;;12.80;6.32;;;;;;;;;;10527726;28;20403;-85
2023/05/02 23:06:06;;;;;;;14.63;6.22;;;;;;;;;;10495340;28;20127;-86
2023/05/02 23:11:11;;;;;;;13.98;6.38;;;;;;;;;;10509203;28;20079;-84
2023/05/02 23:16:14;;;;;;;;;;;;;;;;;;10507371;28;20501;-84
2023/05/02 23:21:31;;;;;;;12.25;5.45;;;;;;;;;;10529182;28;19924;-84
2023/05/02 23:26:36;;;;;;;12.27;5.78;;;;;;;;;;10526495;28;20440;-84
2023/05/02 23:31:40;;;;;;;15.40;7.00;;;;;;;;;;10526399;28;20657;-84
2023/05/02 23:36:47;;;;;;;14.80;5.90;;;;;;;;;;10518931;28;20070;-84
2023/05/02 23:41:55;;;;;;;14.93;6.90;;;;;;;;;;10523059;28;20509;-84
2023/05/02 23:47:01;;;;;;;15.68;7.10;;;;;;;;;;10516638;28;20127;-87
2023/05/02 23:52:09;;;;;;;14.57;6.95;;;;;;;;;;10572047;27;20043;-86
2023/05/02 23:57:14;;;;;;;16.25;6.47;;;;;;;;;;10548937;27;20055;-85
